createdAt,value
2018-12-19T00:00:01.614Z,3.9
2018-12-19T00:05:01.420Z,3.9
2018-12-19T00:10:01.310Z,3.9
2018-12-19T00:15:01.612Z,3.9
2018-12-19T00:20:01.610Z,3.9
2018-12-19T00:25:01.949Z,3.8
2018-12-19T00:30:01.804Z,3.8
2018-12-19T00:35:02.094Z,3.8
2018-12-19T00:40:01.526Z,3.7
2018-12-19T00:45:01.853Z,3.7
2018-12-19T00:50:02.009Z,3.7
2018-12-19T00:55:01.179Z,3.6
2018-12-19T01:00:02.211Z,3.6
2018-12-19T01:05:01.400Z,3.6
2018-12-19T01:10:02.014Z,3.5
2018-12-19T01:15:01.454Z,3.5
2018-12-19T01:20:01.529Z,3.5
2018-12-19T01:25:02.207Z,3.4
2018-12-19T01:30:01.636Z,3.4
2018-12-19T01:35:01.623Z,3.4
2018-12-19T01:40:01.535Z,3.4
2018-12-19T01:45:01.243Z,3.4
2018-12-19T01:50:02.222Z,3.4
2018-12-19T01:55:01.204Z,3.3
2018-12-19T02:00:01.168Z,3.3
2018-12-19T02:05:02.008Z,3.2
2018-12-19T02:10:02.050Z,3.2
2018-12-19T02:15:01.275Z,3.2
2018-12-19T02:20:02.058Z,3.1
2018-12-19T02:25:01.823Z,3.2
2018-12-19T02:30:01.838Z,3.2
2018-12-19T02:35:01.573Z,3.2
2018-12-19T02:40:01.656Z,3.1
2018-12-19T02:45:01.554Z,3.1
2018-12-19T02:50:01.533Z,3.1
2018-12-19T02:55:02.055Z,3.1
2018-12-19T03:00:01.500Z,3.1
2018-12-19T03:05:01.809Z,3.1
2018-12-19T03:10:02.004Z,3.1
2018-12-19T03:15:01.818Z,3.1
2018-12-19T03:20:01.936Z,3.1
2018-12-19T03:25:01.251Z,3.1
2018-12-19T03:30:01.329Z,3.1
2018-12-19T03:35:01.588Z,3.1
2018-12-19T03:40:01.423Z,3.1
2018-12-19T03:45:01.911Z,3.1
2018-12-19T03:50:01.538Z,3
2018-12-19T03:55:01.730Z,3
2018-12-19T04:00:01.935Z,3
2018-12-19T04:05:02.037Z,3
2018-12-19T04:10:01.827Z,3
2018-12-19T04:15:01.579Z,2.9
2018-12-19T04:20:01.202Z,2.9
2018-12-19T04:25:01.576Z,2.9
2018-12-19T04:30:01.962Z,2.9
2018-12-19T04:35:01.349Z,2.9
2018-12-19T04:40:05.264Z,2.9
2018-12-19T04:45:01.498Z,2.9
2018-12-19T04:50:01.447Z,2.9
2018-12-19T04:55:01.401Z,2.9
2018-12-19T05:00:01.474Z,2.9
2018-12-19T05:05:02.141Z,2.9
2018-12-19T05:10:01.116Z,2.9
2018-12-19T05:15:01.824Z,2.9
2018-12-19T05:20:01.606Z,2.9
2018-12-19T05:25:01.301Z,2.9
2018-12-19T05:30:02.189Z,2.9
2018-12-19T05:35:01.658Z,2.9
2018-12-19T05:40:01.313Z,2.9
2018-12-19T05:45:01.648Z,2.9
2018-12-19T05:50:01.804Z,2.9
2018-12-19T05:55:01.909Z,2.9
2018-12-19T06:00:01.145Z,2.9
2018-12-19T06:05:01.565Z,2.9
2018-12-19T06:10:01.822Z,2.9
2018-12-19T06:15:01.249Z,2.9
2018-12-19T06:20:01.529Z,3
2018-12-19T06:25:01.329Z,3
2018-12-19T06:30:01.752Z,3
2018-12-19T06:35:01.389Z,3
2018-12-19T06:40:01.924Z,3
2018-12-19T06:45:01.697Z,3
2018-12-19T06:50:01.771Z,3
2018-12-19T06:55:01.349Z,3
2018-12-19T07:00:01.362Z,3.1
2018-12-19T07:05:02.368Z,3.1
2018-12-19T07:10:01.797Z,3.1
2018-12-19T07:15:02.052Z,3
2018-12-19T07:20:01.793Z,3
2018-12-19T07:25:01.421Z,3
2018-12-19T07:30:01.568Z,3
2018-12-19T07:35:01.514Z,3
2018-12-19T07:40:01.520Z,3
2018-12-19T07:45:01.540Z,3
2018-12-19T07:50:01.576Z,3
2018-12-19T07:55:01.488Z,3
2018-12-19T08:00:01.816Z,3
2018-12-19T08:05:01.234Z,3
2018-12-19T08:10:01.915Z,3
2018-12-19T08:15:02.111Z,3.1
2018-12-19T08:20:01.878Z,3
2018-12-19T08:25:02.271Z,3.1
2018-12-19T08:30:01.335Z,3.1
2018-12-19T08:35:01.785Z,3.1
2018-12-19T08:40:01.410Z,3.2
2018-12-19T08:45:02.215Z,3.2
2018-12-19T08:50:01.968Z,3.2
2018-12-19T08:55:01.408Z,3.2
2018-12-19T09:00:01.940Z,3.2
2018-12-19T09:05:02.013Z,3.3
2018-12-19T09:10:01.792Z,3.3
2018-12-19T09:15:01.819Z,3.3
2018-12-19T09:20:01.839Z,3.4
2018-12-19T09:25:01.599Z,3.4
2018-12-19T09:30:01.936Z,3.4
2018-12-19T09:35:01.435Z,3.5
2018-12-19T09:40:02.480Z,3.5
2018-12-19T09:45:02.407Z,3.6
2018-12-19T09:50:01.863Z,3.6
2018-12-19T09:55:02.154Z,3.7
2018-12-19T10:00:01.979Z,3.7
2018-12-19T10:05:02.169Z,3.8
2018-12-19T10:10:02.236Z,3.8
2018-12-19T10:15:01.743Z,3.9
2018-12-19T10:20:01.446Z,3.9
2018-12-19T10:25:01.553Z,4
2018-12-19T10:30:01.424Z,4
2018-12-19T10:35:01.844Z,4.1
2018-12-19T10:40:02.107Z,4.2
2018-12-19T10:45:01.770Z,4.3
2018-12-19T10:50:01.733Z,4.3
2018-12-19T10:55:01.389Z,4.3
2018-12-19T11:00:01.277Z,4.4
2018-12-19T11:05:01.633Z,4.4
2018-12-19T11:10:01.212Z,4.4
2018-12-19T11:15:01.865Z,4.4
2018-12-19T11:20:02.377Z,4.4
2018-12-19T11:25:01.926Z,4.4
2018-12-19T11:30:01.712Z,4.3
2018-12-19T11:35:02.532Z,4.3
2018-12-19T11:40:01.621Z,4.3
2018-12-19T11:45:02.021Z,4.2
2018-12-19T11:50:01.924Z,4.2
2018-12-19T11:55:02.263Z,4.2
2018-12-19T12:00:01.418Z,4.2
2018-12-19T12:05:02.490Z,4.1
2018-12-19T12:10:01.316Z,4.1
2018-12-19T12:15:02.055Z,4.1
2018-12-19T12:20:01.771Z,4.1
2018-12-19T12:25:02.007Z,4.1
2018-12-19T12:30:01.542Z,4.1
2018-12-19T12:35:03.274Z,4.1
2018-12-19T12:40:02.115Z,4.1
2018-12-19T12:45:01.579Z,4.1
2018-12-19T12:50:02.064Z,4.1
2018-12-19T12:55:01.691Z,4.1
2018-12-19T13:00:02.396Z,4.1
2018-12-19T13:05:01.387Z,4.2
2018-12-19T13:10:02.264Z,4.2
2018-12-19T13:15:01.242Z,4.2
2018-12-19T13:20:02.375Z,4.2
2018-12-19T13:25:02.104Z,4.2
2018-12-19T13:30:01.853Z,4.3
2018-12-19T13:35:02.335Z,4.3
2018-12-19T13:40:01.118Z,4.2
2018-12-19T13:45:02.543Z,4.2
2018-12-19T13:50:03.150Z,4.2
2018-12-19T13:55:01.530Z,4.2
2018-12-19T14:00:01.554Z,4.3
2018-12-19T14:05:01.713Z,4.2
2018-12-19T14:10:01.562Z,4.3
2018-12-19T14:15:02.079Z,4.3
2018-12-19T14:20:01.761Z,4.3
2018-12-19T14:25:02.241Z,4.4
2018-12-19T14:30:01.393Z,4.4
2018-12-19T14:35:01.564Z,4.4
2018-12-19T14:40:02.520Z,4.4
2018-12-19T14:45:01.893Z,4.4
2018-12-19T14:50:02.355Z,4.4
2018-12-19T14:55:02.131Z,4.5
2018-12-19T15:00:01.425Z,4.5
2018-12-19T15:05:01.709Z,4.5
2018-12-19T15:10:02.139Z,4.5
2018-12-19T15:15:01.804Z,4.6
2018-12-19T15:20:02.594Z,4.6
2018-12-19T15:25:01.502Z,4.5
2018-12-19T15:30:01.854Z,4.6
2018-12-19T15:35:01.770Z,4.6
2018-12-19T15:40:02.106Z,4.6
2018-12-19T15:45:01.328Z,4.6
2018-12-19T15:50:01.936Z,4.6
2018-12-19T15:55:01.383Z,4.6
2018-12-19T16:00:01.889Z,4.7
2018-12-19T16:05:01.570Z,4.7
2018-12-19T16:10:02.113Z,4.7
2018-12-19T16:15:01.131Z,4.7
2018-12-19T16:20:02.074Z,4.7
2018-12-19T16:25:01.337Z,4.7
2018-12-19T16:30:01.643Z,4.7
2018-12-19T16:35:02.359Z,4.7
2018-12-19T16:40:01.814Z,4.7
2018-12-19T16:45:01.925Z,4.8
2018-12-19T16:50:01.811Z,4.8
2018-12-19T16:55:02.239Z,4.8
2018-12-19T17:00:01.918Z,4.8
2018-12-19T17:05:01.972Z,4.8
2018-12-19T17:10:02.340Z,4.9
2018-12-19T17:15:01.936Z,4.9
2018-12-19T17:20:01.737Z,4.9
2018-12-19T17:25:01.310Z,4.9
2018-12-19T17:30:01.778Z,5
2018-12-19T17:35:01.342Z,5
2018-12-19T17:40:02.239Z,5
2018-12-19T17:45:01.568Z,5.1
2018-12-19T17:50:01.634Z,5.1
2018-12-19T17:55:02.205Z,5.1
2018-12-19T18:00:02.110Z,5.2
2018-12-19T18:05:01.793Z,5.2
2018-12-19T18:10:01.665Z,5.2
2018-12-19T18:15:02.019Z,5.2
2018-12-19T18:20:01.853Z,5.2
2018-12-19T18:25:02.028Z,5.2
2018-12-19T18:30:01.199Z,5.2
2018-12-19T18:35:01.711Z,5.2
2018-12-19T18:40:01.768Z,5.2
2018-12-19T18:45:01.432Z,5.2
2018-12-19T18:50:01.709Z,5.2
2018-12-19T18:55:02.135Z,5.2
2018-12-19T19:00:01.640Z,5.2
2018-12-19T19:05:01.337Z,5.2
2018-12-19T19:10:01.686Z,5.2
2018-12-19T19:15:01.747Z,5.2
2018-12-19T19:20:01.538Z,5.2
2018-12-19T19:25:02.179Z,5.2
2018-12-19T19:30:01.729Z,5.3
2018-12-19T19:35:01.662Z,5.3
2018-12-19T19:40:01.585Z,5.3
2018-12-19T19:45:01.959Z,5.3
2018-12-19T19:50:02.106Z,5.3
2018-12-19T19:55:01.899Z,5.4
2018-12-19T20:00:01.226Z,5.4
2018-12-19T20:05:01.758Z,5.4
2018-12-19T20:10:02.299Z,5.4
2018-12-19T20:15:01.902Z,5.4
2018-12-19T20:20:01.182Z,5.4
2018-12-19T20:25:01.367Z,5.4
2018-12-19T20:30:01.936Z,5.3
2018-12-19T20:35:01.921Z,5.3
2018-12-19T20:40:01.659Z,5.3
2018-12-19T20:45:02.229Z,5.3
2018-12-19T20:50:01.467Z,5.3
2018-12-19T20:55:01.839Z,5.4
2018-12-19T21:00:02.323Z,5.3
2018-12-19T21:05:02.159Z,5.4
2018-12-19T21:10:01.170Z,5.4
2018-12-19T21:15:01.640Z,5.3
2018-12-19T21:20:01.874Z,5.4
2018-12-19T21:25:01.545Z,5.4
2018-12-19T21:30:02.069Z,5.4
2018-12-19T21:35:01.698Z,5.4
2018-12-19T21:40:01.710Z,5.4
2018-12-19T21:45:01.741Z,5.4
2018-12-19T21:50:01.660Z,5.5
2018-12-19T21:55:01.576Z,5.5
2018-12-19T22:00:02.006Z,5.5
2018-12-19T22:05:01.620Z,5.5
2018-12-19T22:10:02.267Z,5.4
2018-12-19T22:15:02.011Z,5.4
2018-12-19T22:20:01.585Z,5.4
2018-12-19T22:25:01.545Z,5.4
2018-12-19T22:30:02.227Z,5.4
2018-12-19T22:35:02.137Z,5.5
2018-12-19T22:40:01.427Z,5.4
2018-12-19T22:45:01.326Z,5.4
2018-12-19T22:50:02.277Z,5.2
2018-12-19T22:55:02.057Z,5.1
2018-12-19T23:00:01.580Z,5.1
2018-12-19T23:05:02.370Z,5
2018-12-19T23:10:01.254Z,4.9
2018-12-19T23:15:02.959Z,4.9
2018-12-19T23:20:01.738Z,5
2018-12-19T23:25:01.895Z,5
2018-12-19T23:30:01.379Z,4.9
2018-12-19T23:35:01.950Z,4.9
2018-12-19T23:40:02.298Z,4.9
2018-12-19T23:45:01.553Z,4.9
2018-12-19T23:50:01.334Z,4.9
2018-12-19T23:55:02.042Z,4.9
